Time;durP1;ratioP1;P1;durP2;ratioP2;P2;SDS_P1;SDS_P2;PMS_P1;PMS_P2;Temp;Humidity;BMP_temperature;BMP_pressure;BME280_temperature;BME280_humidity;BME280_pressure;Samples;Min_cycle;Max_cycle;Signal;HPM_P1;HPM_P2
2022/01/10 00:00:21;;;;;;;53.80;12.38;;;1.60;99.90;;;;;;5072529;28;20059;-46
2022/01/10 00:02:50;;;;;;;59.80;12.13;;;1.40;99.90;;;;;;5054210;28;20094;-46
2022/01/10 00:05:16;;;;;;;53.83;12.38;;;1.60;99.90;;;;;;5072067;28;20048;-46
2022/01/10 00:07:42;;;;;;;51.95;11.65;;;1.60;99.90;;;;;;5072183;28;20041;-45
2022/01/10 00:10:09;;;;;;;55.15;12.73;;;1.60;99.90;;;;;;5071922;28;20047;-49
2022/01/10 00:12:35;;;;;;;50.30;12.13;;;1.60;99.90;;;;;;5072005;28;20091;-46
2022/01/10 00:15:01;;;;;;;43.42;11.45;;;1.70;99.90;;;;;;5072173;28;20053;-48
2022/01/10 00:17:27;;;;;;;43.20;11.52;;;1.90;99.90;;;;;;5071935;28;20094;-46
2022/01/10 00:19:53;;;;;;;49.08;12.48;;;1.70;99.90;;;;;;5072067;28;20429;-46
2022/01/10 00:22:20;;;;;;;55.13;12.55;;;1.60;99.90;;;;;;5072134;28;20036;-46
2022/01/10 00:24:45;;;;;;;46.25;11.55;;;1.70;99.90;;;;;;5071904;28;20084;-46
2022/01/10 00:27:11;;;;;;;45.28;12.00;;;1.70;99.90;;;;;;5071604;28;20079;-46
2022/01/10 00:29:37;;;;;;;51.70;11.98;;;1.60;99.90;;;;;;5071956;28;20128;-46
2022/01/10 00:32:03;;;;;;;40.65;10.32;;;1.60;99.90;;;;;;5071745;28;20080;-45
2022/01/10 00:34:28;;;;;;;47.35;11.18;;;1.40;99.90;;;;;;5071639;28;20048;-47
2022/01/10 00:36:54;;;;;;;58.17;11.82;;;1.40;99.90;;;;;;5071626;28;20101;-47
2022/01/10 00:39:20;;;;;;;56.15;11.65;;;1.50;99.90;;;;;;5087797;28;20059;-46
2022/01/10 00:41:46;;;;;;;57.50;12.32;;;1.50;99.90;;;;;;5091768;28;20448;-46
2022/01/10 00:44:13;;;;;;;50.22;11.57;;;1.50;99.90;;;;;;5091922;28;20046;-46
2022/01/10 00:46:39;;;;;;;58.30;13.25;;;1.30;99.90;;;;;;5092230;28;20068;-47
2022/01/10 00:49:04;;;;;;;59.05;12.93;;;1.20;99.90;;;;;;5092131;28;20082;-45
2022/01/10 00:51:30;;;;;;;52.55;11.90;;;1.20;99.90;;;;;;5091792;28;20038;-46
2022/01/10 00:53:57;;;;;;;53.40;12.50;;;0.90;99.90;;;;;;5091657;28;20044;-46
2022/01/10 00:56:24;;;;;;;48.03;11.13;;;1.00;99.90;;;;;;5092189;28;20036;-45
2022/01/10 00:58:50;;;;;;;54.20;11.57;;;1.60;99.90;;;;;;5091623;28;20131;-46
2022/01/10 01:01:17;;;;;;;51.92;11.70;;;0.90;99.90;;;;;;5091373;28;20516;-46
2022/01/10 01:03:43;;;;;;;50.72;11.73;;;0.90;99.90;;;;;;5090485;28;20052;-47
2022/01/10 01:06:11;;;;;;;48.30;11.77;;;0.80;99.90;;;;;;5091522;28;20048;-45
2022/01/10 01:08:37;;;;;;;46.88;12.13;;;0.80;99.90;;;;;;5090328;28;20048;-47
2022/01/10 01:11:30;;;;;;;55.35;13.55;;;0.70;99.90;;;;;;5091570;28;20036;-46
2022/01/10 01:13:58;;;;;;;54.08;13.25;;;0.80;99.90;;;;;;5091548;28;20052;-47
2022/01/10 01:24:16;;;;;;;73.63;14.07;;;0.50;99.90;;;;;;5091120;28;20040;-46
2022/01/10 01:26:45;;;;;;;68.75;13.60;;;0.50;99.90;;;;;;5091854;28;20123;-47
2022/01/10 01:29:14;;;;;;;84.13;15.75;;;0.40;99.90;;;;;;5091471;28;20122;-47
2022/01/10 01:31:40;;;;;;;50.33;12.05;;;0.30;99.90;;;;;;5091755;28;20044;-45
2022/01/10 01:34:07;;;;;;;67.90;13.30;;;0.20;99.90;;;;;;5091489;28;20043;-47
2022/01/10 01:36:33;;;;;;;84.63;15.30;;;-0.10;99.90;;;;;;5091323;28;20039;-46
2022/01/10 01:39:05;;;;;;;89.07;14.48;;;0.10;99.90;;;;;;5088642;28;20082;-46
2022/01/10 01:43:57;;;;;;;92.38;15.65;;;-0.10;99.90;;;;;;5090923;28;20048;-46
2022/01/10 01:46:23;;;;;;;48.03;11.95;;;0.00;99.90;;;;;;5090666;28;20040;-46
2022/01/10 01:48:50;;;;;;;56.67;12.18;;;0.00;99.90;;;;;;5090578;28;20036;-47
2022/01/10 01:51:16;;;;;;;86.03;14.85;;;-0.10;99.90;;;;;;5091064;28;20046;-45
2022/01/10 01:53:43;;;;;;;52.03;11.80;;;-0.20;99.90;;;;;;5090539;28;20047;-46
2022/01/10 01:56:11;;;;;;;58.83;13.00;;;-0.40;99.90;;;;;;5090890;28;20085;-47
2022/01/10 01:58:38;;;;;;;83.18;14.80;;;-0.30;99.90;;;;;;5090150;28;20060;-47
2022/01/10 02:01:06;;;;;;;72.03;13.95;;;-0.10;99.90;;;;;;5090924;28;20114;-46
2022/01/10 02:03:33;;;;;;;41.97;11.60;;;-0.20;99.90;;;;;;5090796;28;20454;-46
2022/01/10 02:06:00;;;;;;;58.38;13.23;;;-0.20;99.90;;;;;;5091024;28;20443;-45
2022/01/10 02:08:26;;;;;;;73.53;13.70;;;-0.20;99.90;;;;;;5090310;28;20052;-47
2022/01/10 02:10:52;;;;;;;55.05;13.23;;;0.00;99.90;;;;;;5090589;28;20087;-46
2022/01/10 02:13:18;;;;;;;76.68;16.08;;;-0.20;99.90;;;;;;5090435;28;20047;-48
2022/01/10 02:18:16;;;;;;;71.82;13.32;;;-0.20;99.90;;;;;;5090405;28;20043;-47
2022/01/10 02:20:42;;;;;;;51.80;13.23;;;-0.10;99.90;;;;;;5090145;28;20048;-46
2022/01/10 02:23:08;;;;;;;51.00;12.25;;;-0.30;99.90;;;;;;5090221;28;20039;-46
2022/01/10 02:25:34;;;;;;;76.05;13.73;;;-0.30;99.90;;;;;;5089881;28;20115;-46
2022/01/10 02:28:00;;;;;;;62.53;12.90;;;-0.30;99.90;;;;;;5089919;28;20078;-46
2022/01/10 02:30:26;;;;;;;65.25;12.48;;;-0.40;99.90;;;;;;5089659;28;20052;-46
2022/01/10 02:32:56;;;;;;;52.60;12.52;;;-0.40;99.90;;;;;;5090140;28;20044;-46
2022/01/10 02:35:27;;;;;;;54.95;13.00;;;-0.50;99.90;;;;;;5089852;28;20048;-45
2022/01/10 02:37:55;;;;;;;58.55;12.57;;;-0.40;99.90;;;;;;5087617;28;20044;-46
2022/01/10 02:40:24;;;;;;;92.95;16.38;;;-0.50;99.90;;;;;;5089821;28;20063;-48
2022/01/10 02:42:50;;;;;;;72.13;14.20;;;-0.40;99.90;;;;;;5089781;28;20398;-47
2022/01/10 02:45:17;;;;;;;71.55;14.52;;;-0.30;99.90;;;;;;5071500;28;20111;-46
2022/01/10 02:47:43;;;;;;;58.80;14.25;;;-0.40;99.90;;;;;;5089565;28;20059;-46
2022/01/10 02:50:11;;;;;;;49.15;13.60;;;-0.50;99.90;;;;;;5089499;28;20382;-47
2022/01/10 02:52:37;;;;;;;81.55;16.38;;;-0.60;99.90;;;;;;5089377;28;20044;-45
2022/01/10 02:55:05;;;;;;;74.85;14.85;;;-0.40;99.90;;;;;;5089356;28;20044;-47
2022/01/10 02:57:32;;;;;;;61.63;14.40;;;-0.60;99.90;;;;;;5089434;28;20040;-47
2022/01/10 02:59:59;;;;;;;67.97;14.98;;;-0.30;99.90;;;;;;5089508;28;20101;-47
2022/01/10 03:02:30;;;;;;;65.68;15.38;;;-0.50;99.90;;;;;;5093284;28;20042;-46
2022/01/10 03:04:56;;;;;;;83.03;15.95;;;-0.40;99.90;;;;;;5092407;28;20169;-46
2022/01/10 03:07:23;;;;;;;88.38;16.58;;;-0.60;99.90;;;;;;5093841;28;20127;-46
2022/01/10 03:09:52;;;;;;;80.00;17.15;;;-0.40;99.90;;;;;;5093538;28;20040;-46
2022/01/10 03:12:18;;;;;;;72.03;15.60;;;-0.50;99.90;;;;;;5093874;28;20050;-49
2022/01/10 03:14:44;;;;;;;88.60;15.90;;;-0.50;99.90;;;;;;5093108;28;20043;-46
2022/01/10 03:17:10;;;;;;;60.45;14.13;;;-0.40;99.90;;;;;;5093613;28;20042;-47
2022/01/10 03:19:37;;;;;;;78.25;16.85;;;-0.50;99.90;;;;;;5093250;28;20035;-46
2022/01/10 03:22:04;;;;;;;77.45;17.63;;;-0.60;99.90;;;;;;5093344;28;20055;-47
2022/01/10 03:24:30;;;;;;;56.00;14.93;;;-0.70;99.90;;;;;;5093697;28;20036;-46
2022/01/10 03:26:56;;;;;;;73.47;15.90;;;-0.60;99.90;;;;;;5093285;28;20456;-47
2022/01/10 03:29:22;;;;;;;67.78;15.90;;;-0.60;99.90;;;;;;5093352;28;20498;-46
2022/01/10 03:31:48;;;;;;;83.70;16.88;;;-0.60;99.90;;;;;;5093127;28;20080;-46
2022/01/10 03:34:14;;;;;;;73.28;16.10;;;-0.60;99.90;;;;;;5093362;28;20462;-46
2022/01/10 03:36:40;;;;;;;82.68;15.98;;;-0.70;99.90;;;;;;5093025;28;20036;-46
2022/01/10 03:39:06;;;;;;;80.30;16.42;;;-0.80;99.90;;;;;;5090727;28;20043;-47
2022/01/10 03:41:33;;;;;;;101.03;19.23;;;-0.70;99.90;;;;;;5093078;28;20048;-47
2022/01/10 03:43:59;;;;;;;114.38;20.20;;;-0.70;99.90;;;;;;5092948;28;20379;-46
2022/01/10 03:46:25;;;;;;;74.13;16.70;;;-0.70;99.90;;;;;;5093002;28;20070;-47
2022/01/10 03:48:51;;;;;;;68.43;18.55;;;-0.70;99.90;;;;;;5092554;28;20043;-46
2022/01/10 03:51:16;;;;;;;96.03;19.55;;;-0.80;99.90;;;;;;5092586;28;20036;-50
2022/01/10 03:53:42;;;;;;;80.43;18.95;;;-0.70;99.90;;;;;;5092361;28;20058;-47
2022/01/10 03:56:08;;;;;;;87.05;19.70;;;-0.60;99.90;;;;;;5092892;28;20040;-45
2022/01/10 03:58:34;;;;;;;110.15;21.00;;;-0.40;99.90;;;;;;5092612;28;20059;-48
2022/01/10 04:01:02;;;;;;;94.45;21.80;;;-0.20;99.90;;;;;;5092298;28;20105;-46
2022/01/10 04:03:27;;;;;;;99.18;22.50;;;-0.20;99.90;;;;;;5093127;28;20422;-47
2022/01/10 04:05:53;;;;;;;107.30;24.65;;;-0.20;99.90;;;;;;5092283;28;20079;-46
2022/01/10 04:08:19;;;;;;;100.45;23.45;;;-0.20;99.90;;;;;;5092482;28;20036;-48
2022/01/10 04:10:45;;;;;;;96.47;24.58;;;-0.20;99.90;;;;;;5092273;28;20050;-50
2022/01/10 04:13:11;;;;;;;110.60;25.08;;;-0.20;99.90;;;;;;5091709;28;20044;-46
2022/01/10 04:15:37;;;;;;;124.35;26.75;;;0.20;99.90;;;;;;5092331;28;20043;-47
2022/01/10 04:18:02;;;;;;;106.85;26.02;;;-0.30;99.90;;;;;;5092061;28;20055;-46
2022/01/10 04:20:28;;;;;;;111.32;27.42;;;-0.30;99.90;;;;;;5092196;28;20066;-46
2022/01/10 04:22:54;;;;;;;109.13;27.70;;;-0.30;99.90;;;;;;5092116;28;20088;-46
2022/01/10 04:25:20;;;;;;;106.60;28.73;;;-0.30;99.90;;;;;;5092477;28;20142;-46
2022/01/10 04:27:46;;;;;;;102.97;27.52;;;-0.10;99.90;;;;;;5092600;28;20044;-47
2022/01/10 04:30:12;;;;;;;126.13;31.38;;;0.40;99.90;;;;;;5092177;28;20516;-46
2022/01/10 04:32:39;;;;;;;136.63;32.75;;;-0.40;99.90;;;;;;5092315;28;20075;-46
2022/01/10 04:35:06;;;;;;;130.98;33.85;;;-0.30;99.90;;;;;;5091786;28;20043;-47
2022/01/10 04:37:31;;;;;;;112.22;31.92;;;-0.40;99.90;;;;;;5090227;28;20130;-46
2022/01/10 04:39:57;;;;;;;164.48;36.40;;;-0.30;99.90;;;;;;5091255;28;20067;-47
2022/01/10 04:42:23;;;;;;;139.80;33.85;;;-0.30;99.90;;;;;;5092102;28;20114;-46
2022/01/10 04:44:49;;;;;;;159.27;37.17;;;-0.30;99.90;;;;;;5091890;28;20908;-47
2022/01/10 04:47:15;;;;;;;98.88;31.98;;;-0.30;99.90;;;;;;5091352;28;20083;-48
2022/01/10 04:50:17;;;;;;;121.05;34.75;;;-0.30;99.90;;;;;;5091523;28;20156;-45
2022/01/10 04:52:28;;;;;;;122.97;34.92;;;-0.40;99.90;;;;;;5091069;28;20413;-47
2022/01/10 04:54:54;;;;;;;126.00;37.28;;;-0.30;99.90;;;;;;5091414;28;20051;-46
2022/01/10 04:57:19;;;;;;;121.90;35.50;;;-0.30;99.90;;;;;;5091766;28;20047;-48
2022/01/10 04:59:45;;;;;;;123.40;36.17;;;-0.40;99.90;;;;;;5091655;28;20543;-46
2022/01/10 05:02:11;;;;;;;134.27;38.85;;;-0.30;99.90;;;;;;5090997;28;20036;-46
2022/01/10 05:04:37;;;;;;;116.00;35.38;;;-0.30;99.90;;;;;;5091512;28;20044;-47
2022/01/10 05:07:03;;;;;;;168.45;42.67;;;-0.30;99.90;;;;;;5091350;28;20101;-46
2022/01/10 05:09:28;;;;;;;162.07;40.97;;;-0.50;99.90;;;;;;5091532;28;20036;-47
2022/01/10 05:11:55;;;;;;;145.02;40.10;;;-0.30;99.90;;;;;;5091212;28;20439;-46
2022/01/10 05:14:21;;;;;;;147.68;39.42;;;-0.30;99.90;;;;;;5091104;28;20048;-47
2022/01/10 05:16:47;;;;;;;165.40;41.22;;;-0.40;99.90;;;;;;5090790;28;20043;-47
2022/01/10 05:19:13;;;;;;;131.52;37.72;;;-0.40;99.90;;;;;;5091197;28;20452;-46
2022/01/10 05:21:39;;;;;;;175.50;43.53;;;-0.40;99.90;;;;;;5091163;28;20073;-50
2022/01/10 05:24:05;;;;;;;159.23;41.17;;;-0.40;99.90;;;;;;5089794;28;20097;-49
2022/01/10 05:26:31;;;;;;;145.35;41.30;;;-0.30;99.90;;;;;;5090964;28;20036;-47
2022/01/10 05:28:57;;;;;;;141.25;39.38;;;-0.20;99.90;;;;;;5091128;28;20440;-47
2022/01/10 05:31:22;;;;;;;178.98;46.67;;;-0.30;99.90;;;;;;5090680;28;20119;-46
2022/01/10 05:33:48;;;;;;;99.20;40.67;;;-0.20;99.90;;;;;;5090997;28;20040;-49
2022/01/10 05:36:14;;;;;;;255.13;51.33;;;-0.40;99.90;;;;;;5090772;28;20465;-50
2022/01/10 05:38:40;;;;;;;151.05;44.35;;;-0.10;99.90;;;;;;5088524;28;20059;-46
2022/01/10 05:41:06;;;;;;;115.25;39.60;;;-0.40;99.90;;;;;;5090438;28;20090;-47
2022/01/10 05:43:32;;;;;;;143.20;43.90;;;-0.40;99.90;;;;;;5090682;28;20076;-47
2022/01/10 05:45:58;;;;;;;132.75;43.60;;;-0.50;99.90;;;;;;5090848;28;20385;-48
2022/01/10 05:48:29;;;;;;;128.00;44.90;;;-0.50;99.90;;;;;;5090284;28;20640;-47
2022/01/10 05:50:55;;;;;;;143.10;43.23;;;-0.50;99.90;;;;;;5090760;28;20498;-48
2022/01/10 05:53:21;;;;;;;142.75;43.67;;;-0.50;99.90;;;;;;5090635;28;20090;-46
2022/01/10 05:55:48;;;;;;;151.57;45.38;;;-0.50;99.90;;;;;;5090907;28;20089;-48
2022/01/10 05:58:15;;;;;;;135.63;43.10;;;-0.60;99.90;;;;;;5089986;28;20482;-46
2022/01/10 06:00:41;;;;;;;115.47;40.92;;;-0.60;99.90;;;;;;5090316;28;20047;-48
2022/01/10 06:03:07;;;;;;;143.93;45.22;;;-0.30;99.90;;;;;;5090097;28;20085;-47
2022/01/10 06:05:33;;;;;;;137.73;43.97;;;-0.50;99.90;;;;;;5090089;28;20051;-46
2022/01/10 06:08:00;;;;;;;150.68;43.53;;;-0.50;99.90;;;;;;5090580;28;20043;-47
2022/01/10 06:10:26;;;;;;;161.95;45.50;;;-0.50;99.90;;;;;;5089833;28;20044;-47
2022/01/10 06:12:53;;;;;;;130.13;43.63;;;-0.60;99.90;;;;;;5090127;28;20051;-47
2022/01/10 06:15:19;;;;;;;177.18;45.50;;;-0.60;99.90;;;;;;5089629;28;20501;-46
2022/01/10 06:17:45;;;;;;;130.60;43.67;;;-0.60;99.90;;;;;;5090286;28;20036;-47
2022/01/10 06:20:11;;;;;;;194.60;48.22;;;-0.60;99.90;;;;;;5089736;28;20505;-46
2022/01/10 06:22:37;;;;;;;145.23;45.20;;;-0.70;99.90;;;;;;5090196;28;20051;-46
2022/01/10 06:25:04;;;;;;;114.65;40.08;;;-0.60;99.90;;;;;;5089937;28;20044;-48
2022/01/10 06:27:30;;;;;;;137.63;43.70;;;-0.80;99.90;;;;;;5089544;28;20509;-46
2022/01/10 06:29:56;;;;;;;113.05;42.72;;;-0.70;99.90;;;;;;5089659;28;20044;-47
2022/01/10 06:32:22;;;;;;;211.60;48.47;;;-0.80;99.90;;;;;;5089699;28;20032;-46
2022/01/10 06:34:48;;;;;;;194.95;47.33;;;-0.70;99.90;;;;;;5090066;28;20036;-46
2022/01/10 06:37:14;;;;;;;154.35;43.72;;;-0.70;99.90;;;;;;5088610;28;20032;-49
2022/01/10 06:39:39;;;;;;;143.90;42.05;;;-0.70;99.90;;;;;;5088994;28;20059;-46
2022/01/10 06:42:05;;;;;;;127.50;41.72;;;-0.70;99.90;;;;;;5089636;28;20035;-48
2022/01/10 06:44:31;;;;;;;113.30;40.38;;;-0.80;99.90;;;;;;5089367;28;20040;-46
2022/01/10 06:46:57;;;;;;;114.05;39.38;;;-0.80;99.90;;;;;;5089390;28;20612;-46
2022/01/10 06:49:23;;;;;;;141.32;41.42;;;-0.60;99.90;;;;;;5089381;28;20040;-46
2022/01/10 06:51:49;;;;;;;121.15;39.83;;;-0.80;99.90;;;;;;5089787;28;20047;-46
2022/01/10 06:54:15;;;;;;;179.40;44.60;;;-0.70;99.90;;;;;;5089416;28;20129;-47
2022/01/10 06:56:41;;;;;;;114.15;40.22;;;-0.80;99.90;;;;;;5089490;28;20123;-45
2022/01/10 06:59:08;;;;;;;144.52;42.45;;;-0.80;99.90;;;;;;5089260;28;20056;-46
2022/01/10 07:01:34;;;;;;;134.50;41.65;;;-0.80;99.90;;;;;;5087677;28;20048;-47
2022/01/10 07:03:59;;;;;;;106.47;39.78;;;-0.80;99.90;;;;;;5089436;28;20184;-45
2022/01/10 07:06:25;;;;;;;122.15;40.42;;;-0.80;99.90;;;;;;5089351;28;20123;-47
2022/01/10 07:08:51;;;;;;;124.50;40.47;;;-0.90;99.90;;;;;;5089800;28;20418;-46
2022/01/10 07:11:17;;;;;;;114.53;41.22;;;-0.60;99.90;;;;;;5089152;28;20644;-46
2022/01/10 07:13:43;;;;;;;139.95;43.67;;;-0.10;99.90;;;;;;5087956;28;20048;-48
2022/01/10 07:16:09;;;;;;;105.38;39.20;;;-0.60;99.90;;;;;;5089136;28;20038;-47
2022/01/10 07:18:34;;;;;;;122.60;42.97;;;-0.20;99.90;;;;;;5089075;28;20377;-46
2022/01/10 07:21:00;;;;;;;121.63;44.72;;;0.10;99.90;;;;;;5089208;28;20051;-47
2022/01/10 07:23:26;;;;;;;115.60;41.60;;;-0.40;99.90;;;;;;5089385;28;20032;-46
2022/01/10 07:25:52;;;;;;;164.85;46.95;;;-0.30;99.90;;;;;;5089177;28;20043;-48
2022/01/10 07:28:18;;;;;;;131.60;45.97;;;-0.50;99.90;;;;;;5088793;28;20116;-47
2022/01/10 07:30:44;;;;;;;107.45;41.88;;;-0.20;99.90;;;;;;5089484;28;20115;-46
2022/01/10 07:33:10;;;;;;;121.57;44.03;;;-0.50;99.90;;;;;;5089195;28;20032;-46
2022/01/10 07:35:36;;;;;;;135.15;45.05;;;-0.30;99.90;;;;;;5087552;28;20044;-46
2022/01/10 07:38:01;;;;;;;105.75;41.55;;;-0.50;99.90;;;;;;5086866;28;20059;-46
2022/01/10 07:40:27;;;;;;;141.80;44.47;;;-0.60;99.90;;;;;;5088871;28;20036;-46
2022/01/10 07:42:53;;;;;;;119.47;44.20;;;-0.60;99.90;;;;;;5089205;28;20040;-46
2022/01/10 07:45:18;;;;;;;125.07;43.33;;;-0.70;99.90;;;;;;5089256;28;20036;-47
2022/01/10 07:47:45;;;;;;;127.55;44.28;;;-0.60;99.90;;;;;;5091215;28;20044;-45
2022/01/10 07:50:11;;;;;;;152.65;46.80;;;-0.70;99.90;;;;;;5092620;28;20040;-47
2022/01/10 07:52:36;;;;;;;141.18;46.80;;;-0.80;99.90;;;;;;5084660;28;20048;-45
2022/01/10 07:55:04;;;;;;;138.15;47.13;;;-0.90;99.90;;;;;;5080975;28;20111;-45
2022/01/10 07:57:30;;;;;;;124.78;45.42;;;-0.90;99.90;;;;;;5084352;28;20029;-46
2022/01/10 07:59:56;;;;;;;143.00;48.78;;;-0.90;99.90;;;;;;5091328;28;20442;-45
2022/01/10 08:02:22;;;;;;;115.65;44.53;;;-0.80;99.90;;;;;;5092850;28;20044;-47
2022/01/10 08:04:48;;;;;;;144.60;48.38;;;-0.90;99.90;;;;;;5091207;28;20405;-45
2022/01/10 08:07:14;;;;;;;131.48;47.17;;;-0.90;99.90;;;;;;5092596;28;20115;-46
2022/01/10 08:09:40;;;;;;;134.32;46.42;;;-0.90;99.90;;;;;;5092446;28;20430;-45
2022/01/10 08:12:06;;;;;;;202.95;51.13;;;-0.90;99.90;;;;;;5092257;28;20035;-45
2022/01/10 08:14:33;;;;;;;183.95;51.72;;;-0.90;99.90;;;;;;5090086;28;20117;-46
2022/01/10 08:17:00;;;;;;;146.88;49.75;;;-0.90;99.90;;;;;;5094634;28;20040;-46
2022/01/10 08:19:30;;;;;;;202.63;52.22;;;-0.70;99.90;;;;;;5083601;28;20029;-48
2022/01/10 08:21:57;;;;;;;163.45;52.75;;;-0.80;99.90;;;;;;5082208;28;20032;-45
2022/01/10 08:24:23;;;;;;;173.25;53.03;;;-0.80;99.90;;;;;;5078681;28;20049;-45
2022/01/10 08:26:49;;;;;;;166.27;53.10;;;-0.90;99.90;;;;;;5082282;28;20048;-46
2022/01/10 08:29:16;;;;;;;156.13;53.45;;;-0.90;99.90;;;;;;5082441;28;20493;-45
2022/01/10 08:31:41;;;;;;;164.40;53.35;;;-0.80;99.90;;;;;;5080059;28;20044;-45
2022/01/10 08:34:07;;;;;;;182.60;56.03;;;-0.50;99.90;;;;;;5083002;28;20039;-46
2022/01/10 08:36:34;;;;;;;159.88;55.72;;;-0.80;99.90;;;;;;5071660;28;20124;-45
2022/01/10 08:39:00;;;;;;;145.60;53.70;;;-0.70;99.90;;;;;;5087373;28;20079;-46
2022/01/10 08:41:26;;;;;;;149.27;51.72;;;-0.70;99.90;;;;;;5090493;28;20474;-45
2022/01/10 08:43:51;;;;;;;134.30;50.17;;;-0.70;99.90;;;;;;5091633;28;20491;-45
2022/01/10 08:46:17;;;;;;;156.10;52.42;;;-0.10;99.90;;;;;;5092149;28;20032;-46
2022/01/10 08:48:44;;;;;;;166.35;54.28;;;-0.80;99.90;;;;;;5091588;28;20050;-45
2022/01/10 08:51:09;;;;;;;156.55;54.47;;;-0.60;99.90;;;;;;5091699;28;20075;-48
2022/01/10 08:53:35;;;;;;;140.48;51.53;;;-0.70;99.90;;;;;;5089925;28;20094;-47
2022/01/10 08:56:01;;;;;;;148.82;53.08;;;0.30;99.90;;;;;;5091434;28;20086;-45
2022/01/10 08:58:32;;;;;;;152.98;53.33;;;-0.50;99.90;;;;;;5091436;28;20104;-46
2022/01/10 09:01:05;;;;;;;191.77;58.70;;;-0.60;99.90;;;;;;5090267;28;20436;-46
2022/01/10 09:03:32;;;;;;;193.60;58.80;;;-0.30;99.90;;;;;;5091781;28;20044;-45
2022/01/10 09:05:58;;;;;;;164.48;56.70;;;-0.20;99.90;;;;;;5091662;28;20044;-45
2022/01/10 09:08:27;;;;;;;150.88;54.78;;;-0.40;99.90;;;;;;5091253;28;20040;-46
2022/01/10 09:10:56;;;;;;;157.82;57.13;;;-0.30;99.90;;;;;;5091095;28;20070;-46
2022/01/10 09:13:22;;;;;;;166.20;58.65;;;-0.40;99.90;;;;;;5091335;28;20042;-48
2022/01/10 09:15:48;;;;;;;201.50;66.03;;;-0.40;99.90;;;;;;5091338;28;20123;-48
2022/01/10 09:18:14;;;;;;;192.10;63.95;;;-0.30;99.90;;;;;;5091386;28;20047;-45
2022/01/10 09:20:41;;;;;;;249.48;71.07;;;-0.30;99.90;;;;;;5091353;28;20036;-51
2022/01/10 09:23:07;;;;;;;191.25;64.90;;;0.40;99.90;;;;;;5091038;28;20048;-46
2022/01/10 09:25:33;;;;;;;231.93;69.10;;;-0.20;99.90;;;;;;5091368;28;20047;-51
2022/01/10 09:27:58;;;;;;;161.18;62.00;;;-0.20;99.90;;;;;;5089524;28;20532;-46
2022/01/10 09:30:24;;;;;;;192.38;67.53;;;-0.10;99.90;;;;;;5091086;28;20101;-48
2022/01/10 09:32:50;;;;;;;268.02;76.55;;;-0.40;99.90;;;;;;5090643;28;20044;-46
2022/01/10 09:35:16;;;;;;;208.73;70.63;;;0.10;99.90;;;;;;5089887;28;20529;-47
2022/01/10 09:37:42;;;;;;;175.13;66.05;;;0.10;99.90;;;;;;5078399;28;20052;-40
2022/01/10 09:40:08;;;;;;;192.35;70.05;;;-0.10;99.90;;;;;;5073181;28;20035;-44
2022/01/10 09:42:34;;;;;;;203.75;72.68;;;0.40;99.90;;;;;;5069580;28;20036;-42
2022/01/10 09:45:01;;;;;;;221.70;72.60;;;0.10;99.90;;;;;;5071118;28;20039;-44
2022/01/10 09:47:27;;;;;;;329.75;86.53;;;0.00;99.90;;;;;;5073271;28;20470;-47
2022/01/10 09:49:52;;;;;;;189.10;70.65;;;0.10;99.90;;;;;;5071172;28;20126;-43
2022/01/10 09:52:18;;;;;;;186.98;71.63;;;0.00;99.90;;;;;;5070427;28;20088;-46
2022/01/10 09:54:44;;;;;;;184.65;70.32;;;0.20;99.90;;;;;;5071845;28;20413;-43
2022/01/10 09:57:10;;;;;;;168.32;70.10;;;0.10;99.90;;;;;;5072456;28;20040;-42
2022/01/10 09:59:39;;;;;;;205.77;75.03;;;0.10;99.90;;;;;;5073178;28;20044;-43
2022/01/10 10:02:05;;;;;;;409.70;100.25;;;0.00;99.90;;;;;;5073815;28;20638;-39
2022/01/10 10:04:35;;;;;;;165.07;68.10;;;0.20;99.90;;;;;;5067378;28;20550;-37
2022/01/10 10:07:01;;;;;;;166.00;70.60;;;0.10;99.90;;;;;;5072235;28;20048;-38
2022/01/10 10:09:27;;;;;;;168.15;71.05;;;0.10;99.90;;;;;;5071521;28;20399;-39
2022/01/10 10:11:53;;;;;;;146.00;62.65;;;0.20;99.90;;;;;;5073017;28;20039;-39
2022/01/10 10:14:22;;;;;;;176.60;69.90;;;0.10;99.90;;;;;;5069805;28;20139;-40
2022/01/10 10:16:53;;;;;;;276.60;85.47;;;0.20;99.90;;;;;;5072279;28;20044;-39
2022/01/10 10:19:21;;;;;;;157.73;67.95;;;0.10;99.90;;;;;;5071770;28;20556;-40
2022/01/10 10:21:48;;;;;;;160.02;65.95;;;0.20;99.90;;;;;;5072963;28;20100;-39
2022/01/10 10:24:14;;;;;;;155.00;68.68;;;0.30;99.90;;;;;;5071896;28;20027;-40
2022/01/10 10:26:40;;;;;;;176.80;77.35;;;0.20;99.90;;;;;;5071433;28;20051;-43
2022/01/10 10:29:09;;;;;;;163.35;71.13;;;0.30;99.90;;;;;;5070872;28;20102;-41
2022/01/10 10:31:47;;;;;;;170.45;73.47;;;0.40;99.90;;;;;;5074281;28;20055;-41
2022/01/10 10:34:20;;;;;;;156.75;74.20;;;0.10;99.90;;;;;;5071368;28;20040;-39
2022/01/10 10:37:05;;;;;;;209.15;81.90;;;0.10;99.90;;;;;;5069210;28;20834;-39
2022/01/10 10:39:34;;;;;;;173.20;73.65;;;0.40;99.90;;;;;;5074838;28;20036;-43
2022/01/10 10:42:04;;;;;;;174.32;74.35;;;0.40;99.90;;;;;;4369839;28;10000716;-40
2022/01/10 10:44:30;;;;;;;147.57;71.35;;;0.40;99.90;;;;;;5070788;28;20058;-39
2022/01/10 10:46:56;;;;;;;149.20;71.47;;;0.50;99.90;;;;;;5071090;28;20406;-40
2022/01/10 10:49:46;;;;;;;127.38;65.47;;;0.80;99.90;;;;;;5068791;28;20501;-40
2022/01/10 10:52:13;;;;;;;154.88;73.88;;;3.60;99.90;;;;;;5070251;28;20524;-37
2022/01/10 10:54:40;;;;;;;160.00;73.88;;;0.80;99.90;;;;;;5068444;28;20032;-41
2022/01/10 10:57:07;;;;;;;215.30;86.28;;;0.70;99.90;;;;;;5068544;28;20074;-39
2022/01/10 10:59:43;;;;;;;159.30;73.00;;;0.80;99.90;;;;;;5072232;28;20040;-39
2022/01/10 11:02:09;;;;;;;141.85;66.95;;;0.60;99.90;;;;;;5071961;28;20053;-41
2022/01/10 11:04:35;;;;;;;154.55;74.72;;;0.60;99.90;;;;;;5071121;28;20543;-40
2022/01/10 11:07:02;;;;;;;183.73;80.68;;;0.50;99.90;;;;;;5067146;28;20048;-47
2022/01/10 11:09:28;;;;;;;130.52;67.32;;;2.00;99.90;;;;;;5068519;28;20086;-54
2022/01/10 11:11:54;;;;;;;159.23;75.35;;;0.70;99.90;;;;;;5070429;28;20033;-44
2022/01/10 11:14:22;;;;;;;128.20;65.65;;;0.60;99.90;;;;;;5070608;28;20051;-39
2022/01/10 11:16:50;;;;;;;141.40;68.13;;;0.70;99.90;;;;;;5070908;28;20055;-38
2022/01/10 11:19:18;;;;;;;121.88;61.92;;;1.10;99.90;;;;;;5071531;28;20040;-40
2022/01/10 11:22:03;;;;;;;124.35;63.05;;;0.80;99.90;;;;;;5071577;28;20028;-39
2022/01/10 11:24:48;;;;;;;164.98;74.15;;;0.00;99.90;;;;;;5071992;28;20068;-46
2022/01/10 11:27:33;;;;;;;144.52;67.28;;;0.80;99.90;;;;;;5073022;28;20059;-40
2022/01/10 11:30:02;;;;;;;140.52;65.43;;;0.80;99.90;;;;;;5073096;28;20032;-41
2022/01/10 11:33:00;;;;;;;137.75;67.40;;;0.80;99.90;;;;;;5076728;28;20028;-42
2022/01/10 11:35:55;;;;;;;138.35;66.65;;;0.90;99.90;;;;;;5075101;28;20044;-43
2022/01/10 11:38:26;;;;;;;140.48;66.78;;;0.90;99.90;;;;;;5071956;28;20422;-45
2022/01/10 11:40:55;;;;;;;188.70;79.75;;;0.90;99.90;;;;;;5074801;28;20059;-42
2022/01/10 11:43:43;;;;;;;187.07;81.28;;;1.10;99.90;;;;;;5071820;28;20410;-43
2022/01/10 11:46:17;;;;;;;156.75;71.40;;;1.10;99.90;;;;;;5070890;28;20040;-41
2022/01/10 11:48:55;;;;;;;140.50;68.32;;;1.20;99.90;;;;;;5073968;28;20045;-43
2022/01/10 11:51:42;;;;;;;134.10;64.80;;;1.30;99.90;;;;;;5072011;28;20040;-41
2022/01/10 11:54:26;;;;;;;223.07;86.20;;;1.40;99.90;;;;;;5079970;28;20048;-42
2022/01/10 11:56:51;;;;;;;180.43;76.32;;;1.40;99.90;;;;;;5073295;28;20037;-41
2022/01/10 11:59:26;;;;;;;204.68;79.65;;;1.70;99.90;;;;;;5073461;28;20522;-47
2022/01/10 12:02:03;;;;;;;111.15;58.50;;;0.70;99.90;;;;;;5069798;28;20452;-42
2022/01/10 12:04:36;;;;;;;132.82;64.43;;;1.60;99.90;;;;;;5073299;28;20044;-54
2022/01/10 12:07:03;;;;;;;142.93;65.63;;;1.90;99.90;;;;;;5074255;28;20064;-42
2022/01/10 12:09:30;;;;;;;153.40;68.93;;;1.70;99.90;;;;;;5072233;28;20059;-44
2022/01/10 12:11:58;;;;;;;141.80;66.15;;;1.90;99.90;;;;;;5073444;28;20029;-45
2022/01/10 12:14:24;;;;;;;199.75;79.18;;;1.90;99.90;;;;;;5072175;28;20485;-45
2022/01/10 12:16:51;;;;;;;146.77;65.25;;;2.00;99.90;;;;;;5074974;28;20040;-41
2022/01/10 12:19:18;;;;;;;204.50;77.65;;;2.10;99.90;;;;;;5074219;28;20477;-47
2022/01/10 12:21:44;;;;;;;154.93;68.38;;;2.20;99.90;;;;;;5071840;28;20056;-50
2022/01/10 12:24:11;;;;;;;106.85;56.30;;;2.50;99.90;;;;;;5073119;28;20783;-56
2022/01/10 12:26:38;;;;;;;166.80;70.65;;;2.30;99.90;;;;;;5072943;28;20046;-48
2022/01/10 12:29:06;;;;;;;123.57;61.00;;;2.40;99.90;;;;;;5071985;28;20431;-52
2022/01/10 12:31:34;;;;;;;119.53;61.60;;;2.30;99.90;;;;;;5071607;28;20075;-49
2022/01/10 12:34:01;;;;;;;120.65;57.63;;;2.50;99.90;;;;;;5073012;28;20679;-45
2022/01/10 12:36:28;;;;;;;125.13;58.85;;;2.70;99.90;;;;;;5071997;28;20063;-51